Time;durP1;ratioP1;P1;durP2;ratioP2;P2;SDS_P1;SDS_P2;PMS_P1;PMS_P2;Temp;Humidity;BMP_temperature;BMP_pressure;BME280_temperature;BME280_humidity;BME280_pressure;Samples;Min_cycle;Max_cycle;Signal;HPM_P1;HPM_P2
2022/10/28 00:01:11;;;;;;;11.27;3.60;;;18.10;99.90;;;;;;5019158;28;20193;-82
2022/10/28 00:03:41;;;;;;;12.27;3.30;;;18.10;99.90;;;;;;5019975;28;20584;-82
2022/10/28 00:06:14;;;;;;;8.83;3.57;;;18.10;99.90;;;;;;5017791;28;20181;-82
2022/10/28 00:08:40;;;;;;;10.30;2.90;;;18.10;99.90;;;;;;5019146;28;20200;-82
2022/10/28 00:11:13;;;;;;;8.20;3.33;;;18.10;99.90;;;;;;5019591;28;20181;-82
2022/10/28 00:13:40;;;;;;;9.93;3.50;;;18.10;99.90;;;;;;5019637;28;20236;-82
2022/10/28 00:16:08;;;;;;;9.93;3.47;;;18.10;99.90;;;;;;5019087;28;20185;-82
2022/10/28 00:18:34;;;;;;;8.07;3.47;;;18.10;99.90;;;;;;5019165;28;20196;-82
2022/10/28 00:21:02;;;;;;;10.00;3.00;;;18.10;99.90;;;;;;5019230;28;20212;-82
2022/10/28 00:23:27;;;;;;;11.90;3.00;;;18.10;99.90;;;;;;5019198;28;20173;-82
2022/10/28 00:25:53;;;;;;;6.33;3.40;;;18.10;99.90;;;;;;5019388;28;20165;-82
2022/10/28 00:28:18;;;;;;;12.27;3.10;;;18.20;99.90;;;;;;5018735;28;20250;-81
2022/10/28 00:30:44;;;;;;;11.17;3.30;;;18.10;94.20;;;;;;5018904;28;20173;-82
2022/10/28 00:33:09;;;;;;;7.90;2.90;;;18.10;90.30;;;;;;5018170;28;20180;-82
2022/10/28 00:35:35;;;;;;;6.70;2.93;;;18.10;57.40;;;;;;5018602;28;20173;-82
2022/10/28 00:38:00;;;;;;;7.23;3.00;;;18.10;42.20;;;;;;5018761;28;20276;-82
2022/10/28 00:40:26;;;;;;;8.70;3.00;;;18.10;35.30;;;;;;5018652;28;20191;-82
2022/10/28 00:42:51;;;;;;;6.03;3.20;;;18.10;34.10;;;;;;5018588;28;20268;-82
2022/10/28 00:45:17;;;;;;;5.70;2.80;;;18.10;20.20;;;;;;5018330;28;20179;-81
2022/10/28 00:47:57;;;;;;;10.67;3.70;;;18.10;1.00;;;;;;5018776;28;20540;-82
2022/10/28 00:50:40;;;;;;;10.37;3.20;;;18.10;1.00;;;;;;5019026;28;20164;-82
2022/10/28 00:53:17;;;;;;;7.87;3.50;;;18.20;1.00;;;;;;5017884;28;20173;-82
2022/10/28 00:55:45;;;;;;;7.10;2.80;;;18.10;1.00;;;;;;5018793;28;20153;-82
2022/10/28 00:58:11;;;;;;;6.67;3.27;;;18.10;1.00;;;;;;5017907;28;20192;-82
2022/10/28 01:00:37;;;;;;;9.43;3.57;;;18.10;1.00;;;;;;5017644;28;20240;-82
2022/10/28 01:03:03;;;;;;;6.87;2.83;;;18.10;1.00;;;;;;5018136;28;20180;-82
2022/10/28 01:05:31;;;;;;;5.80;2.50;;;18.10;1.00;;;;;;5018472;28;20173;-82
2022/10/28 01:08:01;;;;;;;11.73;3.50;;;18.10;1.00;;;;;;5018015;28;20204;-82
2022/10/28 01:10:55;;;;;;;9.63;3.20;;;18.10;1.00;;;;;;5017750;28;20153;-82
2022/10/28 01:13:37;;;;;;;9.83;3.37;;;18.10;1.00;;;;;;5017477;28;20208;-82
2022/10/28 01:16:03;;;;;;;7.50;3.47;;;18.10;1.00;;;;;;5018126;28;20189;-82
2022/10/28 01:18:44;;;;;;;8.23;3.17;;;18.10;1.00;;;;;;5017461;28;20193;-82
2022/10/28 01:21:42;;;;;;;6.80;2.60;;;18.20;1.00;;;;;;5017410;28;20292;-83
2022/10/28 01:24:50;;;;;;;7.07;2.77;;;18.10;1.00;;;;;;5017566;28;20261;-81
2022/10/28 01:27:25;;;;;;;6.30;2.80;;;18.10;1.00;;;;;;5017183;28;20564;-82
2022/10/28 01:30:13;;;;;;;8.17;3.00;;;18.10;1.00;;;;;;5016951;28;20165;-82
2022/10/28 01:32:58;;;;;;;6.63;2.93;;;18.10;1.00;;;;;;5017563;28;20157;-80
2022/10/28 01:35:30;;;;;;;5.87;2.80;;;18.10;1.00;;;;;;5017372;28;20176;-81
2022/10/28 01:38:18;;;;;;;10.73;3.07;;;18.10;1.00;;;;;;5017499;28;20260;-82
2022/10/28 01:40:48;;;;;;;11.10;3.40;;;18.10;1.00;;;;;;5016616;28;20189;-82
2022/10/28 01:43:27;;;;;;;8.00;2.90;;;18.20;1.00;;;;;;5016778;28;20176;-82
2022/10/28 01:46:02;;;;;;;6.97;3.20;;;18.10;1.00;;;;;;5016422;28;20295;-82
2022/10/28 01:48:43;;;;;;;8.77;3.30;;;18.10;1.00;;;;;;5016705;28;20194;-81
2022/10/28 01:51:18;;;;;;;6.87;3.10;;;18.10;1.00;;;;;;5016736;28;20165;-82
2022/10/28 01:53:48;;;;;;;14.27;3.10;;;18.10;1.00;;;;;;5016156;28;20259;-82
2022/10/28 01:56:20;;;;;;;5.43;2.93;;;18.10;1.00;;;;;;5016854;28;20173;-82
2022/10/28 01:58:47;;;;;;;16.30;3.17;;;18.10;1.00;;;;;;5016696;28;20204;-82
2022/10/28 02:01:13;;;;;;;8.20;2.97;;;18.10;1.00;;;;;;5016365;28;20200;-81
2022/10/28 02:03:38;;;;;;;7.13;2.90;;;18.10;1.00;;;;;;5016069;28;20204;-81
2022/10/28 02:06:13;;;;;;;8.63;2.93;;;18.00;1.00;;;;;;5015958;28;20165;-82
2022/10/28 02:08:51;;;;;;;6.93;2.63;;;18.00;1.00;;;;;;5016046;28;20218;-80
2022/10/28 02:11:20;;;;;;;10.37;3.43;;;18.00;1.00;;;;;;5016159;28;20165;-80
2022/10/28 02:14:05;;;;;;;13.23;4.07;;;17.90;1.00;;;;;;5016181;28;20200;-82
2022/10/28 02:16:56;;;;;;;5.57;2.87;;;17.90;1.00;;;;;;5016108;28;20610;-82
2022/10/28 02:19:24;;;;;;;9.77;2.97;;;17.90;1.00;;;;;;5015698;28;20168;-82
2022/10/28 02:22:09;;;;;;;4.73;3.00;;;17.90;1.00;;;;;;5015859;28;20685;-82
2022/10/28 02:24:48;;;;;;;7.37;3.00;;;17.90;1.00;;;;;;5014796;28;20161;-82
2022/10/28 02:27:29;;;;;;;9.90;3.10;;;17.80;1.00;;;;;;5016898;28;20193;-83
2022/10/28 02:30:07;;;;;;;6.90;2.57;;;17.80;1.00;;;;;;5017413;28;20524;-82
2022/10/28 02:32:39;;;;;;;6.87;2.70;;;17.80;1.00;;;;;;5017093;28;20165;-82
2022/10/28 02:35:10;;;;;;;12.53;3.30;;;17.80;1.00;;;;;;5017386;28;20248;-82
2022/10/28 02:37:39;;;;;;;8.17;2.97;;;17.80;1.00;;;;;;5017082;28;20193;-80
2022/10/28 02:40:10;;;;;;;12.40;3.20;;;17.70;1.00;;;;;;5017066;28;20196;-82
2022/10/28 02:42:40;;;;;;;7.97;2.90;;;17.80;1.00;;;;;;5017265;28;20589;-81
2022/10/28 02:45:14;;;;;;;5.20;2.90;;;17.80;1.00;;;;;;5016881;28;20169;-82
2022/10/28 02:47:51;;;;;;;8.70;3.23;;;17.70;1.00;;;;;;5017131;28;20238;-81
2022/10/28 02:50:22;;;;;;;11.40;3.27;;;17.70;1.00;;;;;;5017531;28;20164;-82
2022/10/28 02:52:53;;;;;;;9.63;3.10;;;17.80;1.00;;;;;;5017850;28;20157;-82
2022/10/28 02:55:22;;;;;;;8.97;3.40;;;17.70;1.00;;;;;;5018136;28;20649;-81
2022/10/28 02:57:48;;;;;;;6.40;3.23;;;17.70;1.00;;;;;;5018387;28;20201;-82
2022/10/28 03:00:21;;;;;;;6.87;2.60;;;17.60;1.00;;;;;;5016287;28;20227;-82
2022/10/28 03:02:46;;;;;;;6.97;3.23;;;17.60;1.00;;;;;;5017988;28;20270;-82
2022/10/28 03:05:13;;;;;;;9.60;3.17;;;17.60;1.00;;;;;;5018171;28;20650;-83
2022/10/28 03:07:39;;;;;;;6.27;2.57;;;17.60;2.70;;;;;;5018648;28;20185;-83
2022/10/28 03:10:05;;;;;;;9.70;3.40;;;17.60;12.50;;;;;;5018710;28;20219;-83
2022/10/28 03:12:30;;;;;;;7.73;3.20;;;17.60;11.60;;;;;;5019458;28;20227;-83
2022/10/28 03:14:56;;;;;;;8.07;2.90;;;17.50;21.80;;;;;;5036491;28;20192;-82
2022/10/28 03:17:21;;;;;;;6.73;2.83;;;17.40;38.60;;;;;;5036776;28;20243;-83
2022/10/28 03:19:47;;;;;;;8.90;3.30;;;17.50;53.40;;;;;;5019989;28;20177;-82
2022/10/28 03:22:12;;;;;;;10.53;3.23;;;17.50;72.40;;;;;;5015575;28;20205;-80
2022/10/28 03:24:38;;;;;;;10.00;3.23;;;17.40;91.40;;;;;;5015862;28;20173;-82
2022/10/28 03:27:03;;;;;;;6.10;2.87;;;17.40;94.40;;;;;;5016370;28;20243;-82
2022/10/28 03:29:29;;;;;;;8.43;2.87;;;17.40;93.60;;;;;;5016654;28;20185;-82
2022/10/28 03:31:54;;;;;;;8.40;3.37;;;17.40;99.90;;;;;;5016208;28;20181;-82
2022/10/28 03:34:20;;;;;;;6.23;3.30;;;17.40;99.90;;;;;;5016366;28;20192;-82
2022/10/28 03:36:45;;;;;;;7.43;3.23;;;17.50;99.90;;;;;;5018323;28;20184;-82
2022/10/28 03:39:11;;;;;;;8.97;2.93;;;17.40;99.90;;;;;;5020340;28;20177;-82
2022/10/28 03:41:36;;;;;;;9.43;3.13;;;17.30;99.90;;;;;;5019884;28;20228;-82
2022/10/28 03:44:02;;;;;;;14.47;3.50;;;17.40;99.90;;;;;;5017788;28;20176;-80
2022/10/28 03:46:27;;;;;;;5.60;2.63;;;17.30;99.90;;;;;;5018081;28;20181;-82
2022/10/28 03:48:53;;;;;;;6.53;3.03;;;17.30;99.90;;;;;;5018765;28;20209;-82
2022/10/28 03:51:18;;;;;;;7.80;2.77;;;17.30;99.90;;;;;;5019567;28;20181;-82
2022/10/28 03:53:44;;;;;;;9.03;3.37;;;17.30;99.90;;;;;;5019626;28;20181;-82
2022/10/28 03:56:10;;;;;;;11.60;4.10;;;17.30;99.90;;;;;;5019973;28;20173;-82
2022/10/28 03:58:36;;;;;;;7.17;2.67;;;17.30;99.90;;;;;;5019188;28;20193;-82
2022/10/28 04:01:02;;;;;;;6.57;2.87;;;17.30;99.90;;;;;;5019437;28;20207;-82
2022/10/28 04:03:28;;;;;;;9.50;3.33;;;17.30;99.90;;;;;;5019649;28;20200;-81
2022/10/28 04:05:53;;;;;;;9.50;3.20;;;17.30;99.90;;;;;;5019813;28;20196;-82
2022/10/28 04:08:20;;;;;;;7.07;3.27;;;17.30;99.90;;;;;;5019005;28;20707;-82
2022/10/28 04:10:46;;;;;;;10.43;3.10;;;17.20;99.90;;;;;;5019821;28;20165;-80
2022/10/28 04:13:12;;;;;;;9.10;4.07;;;17.20;99.90;;;;;;5020100;28;20184;-82
2022/10/28 04:15:38;;;;;;;12.03;3.13;;;17.30;99.90;;;;;;5019410;28;20193;-82
2022/10/28 04:18:03;;;;;;;14.03;3.50;;;17.30;99.90;;;;;;5020226;28;20204;-82
2022/10/28 04:20:29;;;;;;;9.40;3.37;;;17.30;99.90;;;;;;5019707;28;20180;-81
2022/10/28 04:22:55;;;;;;;11.70;3.10;;;17.30;99.90;;;;;;5019857;28;20182;-80
2022/10/28 04:25:21;;;;;;;8.30;2.77;;;17.30;99.90;;;;;;5020628;28;20208;-81
2022/10/28 04:27:48;;;;;;;11.77;3.60;;;17.30;99.90;;;;;;5020463;28;20216;-81
2022/10/28 04:30:13;;;;;;;9.43;2.90;;;17.30;99.90;;;;;;5019879;28;20184;-81
2022/10/28 04:32:40;;;;;;;12.77;3.03;;;17.20;99.90;;;;;;5020224;28;20173;-81
2022/10/28 04:35:06;;;;;;;10.90;3.27;;;17.20;99.90;;;;;;5020558;28;20181;-81
2022/10/28 04:37:32;;;;;;;8.30;3.10;;;17.20;99.90;;;;;;5020337;28;20376;-82
2022/10/28 04:39:57;;;;;;;11.00;3.23;;;17.20;99.90;;;;;;5019474;28;20185;-81
2022/10/28 04:42:23;;;;;;;6.90;3.30;;;17.20;99.90;;;;;;5020947;28;20192;-80
2022/10/28 04:44:49;;;;;;;12.50;3.00;;;17.20;99.90;;;;;;5020060;28;20173;-82
2022/10/28 04:47:15;;;;;;;8.90;3.50;;;17.20;99.90;;;;;;5029857;28;20187;-81
2022/10/28 04:49:40;;;;;;;10.17;3.90;;;17.20;99.90;;;;;;5035320;28;20204;-80
2022/10/28 04:52:06;;;;;;;11.17;3.03;;;17.20;99.90;;;;;;5032361;28;20188;-81
2022/10/28 04:54:31;;;;;;;10.17;3.37;;;17.20;99.90;;;;;;5018226;28;20181;-80
2022/10/28 04:56:57;;;;;;;8.83;3.20;;;17.20;99.90;;;;;;5017192;28;20189;-81
2022/10/28 04:59:23;;;;;;;13.30;2.80;;;17.20;99.90;;;;;;5017555;28;20176;-80
2022/10/28 05:01:48;;;;;;;9.33;2.90;;;17.30;99.90;;;;;;5017856;28;20287;-80
2022/10/28 05:04:14;;;;;;;16.20;3.50;;;17.20;99.90;;;;;;5018328;28;20184;-81
2022/10/28 05:06:39;;;;;;;7.30;3.83;;;17.20;99.90;;;;;;5017799;28;20213;-80
2022/10/28 05:09:05;;;;;;;9.77;2.87;;;17.20;99.90;;;;;;5017526;28;20173;-80
2022/10/28 05:11:31;;;;;;;10.53;3.03;;;17.30;99.90;;;;;;5016911;28;20181;-81
2022/10/28 05:13:56;;;;;;;8.53;3.40;;;17.20;99.90;;;;;;5018208;28;20184;-78
2022/10/28 05:16:22;;;;;;;14.27;3.87;;;17.40;99.90;;;;;;5016735;28;20212;-81
2022/10/28 05:18:47;;;;;;;11.00;3.53;;;17.30;99.90;;;;;;5014438;28;20200;-81
2022/10/28 05:21:13;;;;;;;6.57;3.50;;;17.30;99.90;;;;;;5016750;28;20681;-81
2022/10/28 05:23:38;;;;;;;8.60;2.90;;;17.30;99.90;;;;;;5018196;28;20549;-81
2022/10/28 05:26:04;;;;;;;10.07;2.97;;;17.20;99.90;;;;;;5017427;28;20177;-81
2022/10/28 05:28:30;;;;;;;10.40;3.40;;;17.30;99.90;;;;;;5017450;28;20200;-81
2022/10/28 05:30:55;;;;;;;8.57;3.23;;;17.20;99.90;;;;;;5017445;28;20184;-81
2022/10/28 05:33:21;;;;;;;7.50;2.73;;;17.30;99.90;;;;;;5018401;28;20177;-81
2022/10/28 05:35:46;;;;;;;7.97;3.53;;;17.30;99.90;;;;;;5017366;28;20177;-81
2022/10/28 05:38:12;;;;;;;10.73;3.13;;;17.30;99.90;;;;;;5017823;28;20678;-81
2022/10/28 05:40:38;;;;;;;11.17;3.43;;;17.30;99.90;;;;;;5017190;28;20188;-81
2022/10/28 05:43:03;;;;;;;10.83;3.47;;;17.30;99.90;;;;;;5017590;28;20206;-81
2022/10/28 05:45:29;;;;;;;8.83;3.53;;;17.30;99.90;;;;;;5017914;28;20185;-81
2022/10/28 05:47:56;;;;;;;7.23;3.37;;;17.20;99.90;;;;;;5017407;28;20192;-81
2022/10/28 05:50:22;;;;;;;5.13;2.93;;;17.10;99.90;;;;;;5017650;28;20183;-82
2022/10/28 05:52:50;;;;;;;11.73;3.80;;;17.30;99.90;;;;;;5017711;28;20252;-81
2022/10/28 05:55:18;;;;;;;10.40;3.40;;;17.20;99.90;;;;;;5018389;28;20184;-82
2022/10/28 05:57:44;;;;;;;10.97;3.20;;;17.30;99.90;;;;;;5017140;28;20666;-81
2022/10/28 06:00:11;;;;;;;12.20;3.37;;;17.30;99.90;;;;;;5017867;28;20177;-81
2022/10/28 06:02:36;;;;;;;7.97;3.23;;;17.30;99.90;;;;;;5018711;28;20212;-81
2022/10/28 06:05:02;;;;;;;12.00;3.70;;;17.20;99.90;;;;;;5018708;28;20173;-81
2022/10/28 06:07:28;;;;;;;12.80;2.87;;;17.30;99.90;;;;;;5033398;28;20192;-81
2022/10/28 06:09:54;;;;;;;6.63;3.37;;;17.20;99.90;;;;;;5037592;28;20181;-80
2022/10/28 06:12:20;;;;;;;8.43;3.20;;;17.20;99.90;;;;;;5027516;28;20552;-81
2022/10/28 06:14:45;;;;;;;7.03;3.03;;;17.20;99.90;;;;;;5017526;28;20252;-81
2022/10/28 06:17:11;;;;;;;6.53;2.70;;;17.20;99.90;;;;;;5017226;28;20274;-80
2022/10/28 06:19:36;;;;;;;5.67;3.10;;;17.20;99.90;;;;;;5016403;28;20184;-81
2022/10/28 06:22:02;;;;;;;8.10;3.50;;;17.20;99.90;;;;;;5016084;28;20263;-81
2022/10/28 06:24:27;;;;;;;12.77;3.40;;;17.30;99.90;;;;;;5015972;28;20224;-80
2022/10/28 06:26:53;;;;;;;11.47;3.40;;;17.30;99.90;;;;;;5015663;28;20200;-79
2022/10/28 06:29:19;;;;;;;9.93;2.90;;;17.30;99.90;;;;;;5015484;28;20180;-80
2022/10/28 06:31:44;;;;;;;11.43;3.97;;;17.20;99.90;;;;;;5014983;28;20203;-81
2022/10/28 06:34:11;;;;;;;8.77;3.33;;;17.20;99.90;;;;;;5015494;28;20181;-81
2022/10/28 06:36:37;;;;;;;8.40;2.83;;;17.20;99.90;;;;;;5015467;28;20654;-81
2022/10/28 06:39:03;;;;;;;9.43;3.27;;;17.20;99.90;;;;;;5013680;28;20215;-80
2022/10/28 06:41:28;;;;;;;9.37;3.50;;;17.20;99.90;;;;;;5013271;28;20343;-81
2022/10/28 06:43:54;;;;;;;8.17;3.27;;;17.20;99.90;;;;;;5015038;28;20203;-81
2022/10/28 06:46:19;;;;;;;11.83;3.53;;;17.20;99.90;;;;;;5013557;28;20593;-81
2022/10/28 06:48:45;;;;;;;8.07;3.70;;;17.20;99.90;;;;;;5014811;28;20185;-80
2022/10/28 06:51:10;;;;;;;12.70;3.43;;;17.20;99.90;;;;;;5015715;28;20200;-81
2022/10/28 06:53:36;;;;;;;8.97;3.20;;;17.20;99.90;;;;;;5015380;28;20257;-80
2022/10/28 06:56:02;;;;;;;12.83;3.13;;;17.20;99.90;;;;;;5015686;28;20180;-81
2022/10/28 06:58:28;;;;;;;9.00;3.20;;;17.20;99.90;;;;;;5015556;28;20193;-80
2022/10/28 07:00:54;;;;;;;15.13;3.30;;;17.20;99.90;;;;;;5015154;28;20563;-81
2022/10/28 07:03:20;;;;;;;7.47;3.13;;;17.10;99.90;;;;;;5014760;28;20210;-80
2022/10/28 07:05:46;;;;;;;8.17;3.77;;;17.20;99.90;;;;;;5014714;28;20586;-81
2022/10/28 07:08:13;;;;;;;9.17;2.90;;;17.20;99.90;;;;;;5015318;28;20563;-81
2022/10/28 07:10:38;;;;;;;7.60;3.17;;;17.20;99.90;;;;;;5015069;28;20519;-80
2022/10/28 07:13:04;;;;;;;10.63;3.10;;;17.20;99.90;;;;;;5013154;28;20173;-80
2022/10/28 07:15:30;;;;;;;9.80;3.20;;;17.20;99.90;;;;;;5012885;28;20635;-81
2022/10/28 07:17:57;;;;;;;10.67;3.83;;;17.20;99.90;;;;;;5015623;28;20571;-81
2022/10/28 07:20:24;;;;;;;11.67;3.10;;;17.20;99.90;;;;;;5015241;28;20240;-81
2022/10/28 07:23:00;;;;;;;12.37;4.10;;;17.30;99.90;;;;;;5011789;28;20197;-80
2022/10/28 07:25:27;;;;;;;9.80;3.30;;;17.30;99.90;;;;;;5014591;28;20176;-80
2022/10/28 07:27:53;;;;;;;9.20;3.43;;;17.30;99.90;;;;;;5013517;28;20197;-81
2022/10/28 07:30:18;;;;;;;13.83;3.03;;;17.40;99.90;;;;;;5015035;28;20538;-80
2022/10/28 07:32:44;;;;;;;9.80;2.83;;;17.40;99.90;;;;;;5015079;28;20227;-80
2022/10/28 07:35:09;;;;;;;7.67;3.40;;;17.40;99.90;;;;;;5014781;28;20177;-81
2022/10/28 07:37:37;;;;;;;12.37;3.13;;;17.40;99.90;;;;;;5013264;28;20240;-80
2022/10/28 07:40:03;;;;;;;8.23;3.20;;;17.50;99.90;;;;;;5014967;28;20606;-81
2022/10/28 07:42:29;;;;;;;11.83;3.07;;;17.40;99.90;;;;;;5014713;28;20259;-81
2022/10/28 07:44:54;;;;;;;6.77;2.97;;;17.50;99.90;;;;;;5022915;28;20570;-82
2022/10/28 07:47:20;;;;;;;12.70;3.90;;;17.50;99.90;;;;;;5037631;28;20269;-81
2022/10/28 07:49:46;;;;;;;13.50;3.67;;;17.60;94.70;;;;;;5037850;28;20165;-81
2022/10/28 07:52:12;;;;;;;6.60;2.90;;;17.60;71.30;;;;;;5037896;28;20192;-81
2022/10/28 07:54:37;;;;;;;8.93;3.30;;;17.60;61.20;;;;;;5028901;28;20177;-80
2022/10/28 07:57:03;;;;;;;14.20;3.50;;;17.60;55.20;;;;;;5018044;28;20216;-82
2022/10/28 07:59:28;;;;;;;11.83;3.70;;;17.70;32.90;;;;;;5004993;28;20596;-82
2022/10/28 08:01:54;;;;;;;9.60;3.50;;;17.70;29.80;;;;;;5001534;28;20198;-82
2022/10/28 08:04:19;;;;;;;9.23;2.97;;;17.80;15.80;;;;;;5000487;28;20245;-82
2022/10/28 08:06:45;;;;;;;7.43;2.97;;;17.80;10.10;;;;;;4999463;28;20170;-82
2022/10/28 08:09:10;;;;;;;12.03;3.13;;;17.80;1.00;;;;;;5001315;28;20201;-82
2022/10/28 08:11:36;;;;;;;12.43;3.30;;;17.80;1.00;;;;;;5013239;28;20184;-82
2022/10/28 08:14:01;;;;;;;12.70;3.20;;;17.80;1.00;;;;;;5020666;28;20177;-82
2022/10/28 08:16:27;;;;;;;14.13;3.40;;;17.80;1.00;;;;;;5018336;28;20731;-82
2022/10/28 08:18:55;;;;;;;7.33;3.40;;;17.90;1.00;;;;;;5018724;28;20177;-82
2022/10/28 08:21:21;;;;;;;5.60;3.03;;;17.90;1.00;;;;;;5020769;28;20228;-83
2022/10/28 08:23:47;;;;;;;10.40;2.93;;;17.90;1.00;;;;;;5023020;28;20173;-81
2022/10/28 08:26:15;;;;;;;8.33;3.53;;;17.90;1.00;;;;;;5023323;28;20187;-82
2022/10/28 08:28:41;;;;;;;14.27;3.17;;;18.00;1.00;;;;;;5022556;28;20193;-83
2022/10/28 08:31:11;;;;;;;11.57;3.63;;;18.00;1.00;;;;;;5021300;28;20632;-83
2022/10/28 08:33:39;;;;;;;14.93;3.30;;;18.00;1.00;;;;;;5021522;28;20280;-82
2022/10/28 08:36:06;;;;;;;7.73;3.50;;;18.00;1.00;;;;;;5021697;28;20177;-83
2022/10/28 08:38:31;;;;;;;7.40;3.50;;;18.00;1.00;;;;;;5022658;28;20220;-82
2022/10/28 08:41:01;;;;;;;7.27;3.00;;;18.10;1.00;;;;;;5021859;28;20216;-81
2022/10/28 08:43:48;;;;;;;12.83;3.13;;;18.10;1.00;;;;;;5022785;28;20173;-81
2022/10/28 08:46:29;;;;;;;7.87;3.20;;;18.20;1.00;;;;;;5021411;28;20172;-78
2022/10/28 08:48:55;;;;;;;11.37;3.33;;;18.20;1.00;;;;;;5022708;28;20192;-80
2022/10/28 08:51:59;;;;;;;9.10;3.13;;;18.30;1.00;;;;;;5020860;28;20181;-81
2022/10/28 08:54:38;;;;;;;8.90;3.40;;;18.40;1.00;;;;;;5021871;28;20165;-80
2022/10/28 08:57:08;;;;;;;7.23;3.10;;;18.40;1.00;;;;;;5022027;28;20204;-81
2022/10/28 08:59:39;;;;;;;8.43;3.43;;;18.50;1.00;;;;;;5021230;28;20190;-81
2022/10/28 09:02:10;;;;;;;6.07;3.00;;;18.50;1.00;;;;;;5020122;28;20258;-81
2022/10/28 09:04:40;;;;;;;7.60;2.97;;;18.60;1.00;;;;;;5021770;28;20216;-82
2022/10/28 09:07:17;;;;;;;11.27;3.63;;;18.60;1.00;;;;;;5022098;28;20196;-78
2022/10/28 09:09:44;;;;;;;12.37;3.60;;;18.70;1.00;;;;;;5020240;28;20165;-81
2022/10/28 09:12:39;;;;;;;10.73;3.70;;;18.80;1.00;;;;;;5021256;28;20200;-79
2022/10/28 09:15:40;;;;;;;10.33;2.93;;;18.80;99.90;;;;;;5020758;28;20188;-81
2022/10/28 09:18:18;;;;;;;9.30;2.83;;;18.90;99.90;;;;;;4994367;28;20223;-77
2022/10/28 09:20:54;;;;;;;12.67;3.30;;;19.00;99.90;;;;;;5032410;28;20229;-79
2022/10/28 09:23:43;;;;;;;8.87;3.00;;;19.10;99.90;;;;;;5028655;28;20171;-81
2022/10/28 09:26:28;;;;;;;9.57;3.13;;;19.10;99.90;;;;;;5022642;28;20161;-78
2022/10/28 09:29:14;;;;;;;13.50;3.60;;;19.20;1.00;;;;;;5021992;28;20189;-80
2022/10/28 09:31:51;;;;;;;11.63;3.77;;;19.30;1.00;;;;;;5021599;28;20196;-80
2022/10/28 09:34:39;;;;;;;11.60;3.07;;;19.30;1.00;;;;;;5021570;28;20164;-81
2022/10/28 09:37:27;;;;;;;10.30;2.90;;;19.40;1.00;;;;;;5021654;28;20281;-80
2022/10/28 09:40:01;;;;;;;9.03;3.10;;;19.50;99.90;;;;;;5020305;28;20595;-80
2022/10/28 09:42:38;;;;;;;10.97;3.00;;;19.70;99.90;;;;;;5020159;28;20207;-81
2022/10/28 09:45:15;;;;;;;10.37;3.33;;;19.70;99.90;;;;;;5019902;28;20164;-80
2022/10/28 09:47:44;;;;;;;9.50;3.47;;;19.70;1.00;;;;;;5020138;28;20206;-81
2022/10/28 09:50:17;;;;;;;10.87;3.67;;;19.70;1.00;;;;;;5020162;28;20173;-81
2022/10/28 09:53:16;;;;;;;10.63;3.37;;;19.80;1.00;;;;;;5019658;28;20169;-78
2022/10/28 09:55:42;;;;;;;11.17;3.17;;;19.80;5.40;;;;;;5019621;28;20192;-80
2022/10/28 09:58:10;;;;;;;9.40;2.87;;;19.90;25.70;;;;;;5018625;28;20200;-81
2022/10/28 10:00:36;;;;;;;10.67;2.90;;;19.90;1.00;;;;;;5017124;28;20186;-80
2022/10/28 10:03:02;;;;;;;8.10;3.10;;;20.00;1.00;;;;;;5017648;28;20213;-80
2022/10/28 10:05:30;;;;;;;6.50;2.47;;;19.90;1.00;;;;;;5017562;28;20177;-81
2022/10/28 10:08:05;;;;;;;9.17;3.23;;;20.00;1.00;;;;;;5017251;28;20204;-80
2022/10/28 10:10:45;;;;;;;9.17;3.23;;;20.10;1.00;;;;;;5018391;28;20199;-80
2022/10/28 10:13:14;;;;;;;13.07;3.50;;;20.10;1.00;;;;;;5018754;28;20157;-80
2022/10/28 10:15:50;;;;;;;13.63;3.53;;;20.20;1.00;;;;;;5018661;28;20177;-80
2022/10/28 10:18:21;;;;;;;12.10;4.00;;;20.20;99.90;;;;;;5018593;28;20266;-80
2022/10/28 10:20:59;;;;;;;13.20;3.53;;;20.20;99.90;;;;;;5018176;28;20176;-77
2022/10/28 10:23:35;;;;;;;7.10;2.83;;;20.30;99.90;;;;;;5017281;28;20157;-81
2022/10/28 10:26:12;;;;;;;10.00;3.40;;;20.30;99.90;;;;;;5017196;28;20173;-80
2022/10/28 10:28:47;;;;;;;7.97;3.20;;;20.40;99.90;;;;;;5018359;28;20688;-81
2022/10/28 10:31:25;;;;;;;15.03;3.50;;;20.30;99.90;;;;;;5018633;28;20258;-80
2022/10/28 10:33:55;;;;;;;9.63;3.20;;;20.50;99.90;;;;;;5018906;28;20169;-81
2022/10/28 10:36:27;;;;;;;7.70;3.13;;;20.50;99.90;;;;;;5019000;28;20177;-81
2022/10/28 10:39:01;;;;;;;10.57;2.90;;;20.50;99.90;;;;;;5018778;28;20196;-80
2022/10/28 10:41:38;;;;;;;11.50;3.23;;;20.70;99.90;;;;;;5017431;28;20296;-80
2022/10/28 10:44:33;;;;;;;13.37;3.03;;;20.70;99.90;;;;;;5018474;28;20189;-80
2022/10/28 10:46:59;;;;;;;10.67;3.10;;;20.80;23.50;;;;;;5017777;28;20556;-80
2022/10/28 10:49:26;;;;;;;15.63;4.73;;;20.90;1.00;;;;;;5018183;28;20177;-81
2022/10/28 10:51:55;;;;;;;11.67;3.50;;;21.00;1.00;;;;;;5017554;28;20267;-80
2022/10/28 10:54:21;;;;;;;10.97;3.13;;;21.00;1.00;;;;;;5016491;28;20181;-80
2022/10/28 10:56:47;;;;;;;8.80;3.10;;;21.10;1.00;;;;;;5017507;28;20176;-80
2022/10/28 10:59:31;;;;;;;11.47;3.50;;;21.10;1.00;;;;;;5016275;28;20196;-80
2022/10/28 11:01:58;;;;;;;9.60;3.27;;;21.20;1.00;;;;;;5018049;28;20212;-81
2022/10/28 11:04:26;;;;;;;12.27;2.93;;;21.20;1.00;;;;;;5017177;28;20206;-80
2022/10/28 11:06:54;;;;;;;12.33;3.40;;;21.30;1.00;;;;;;5017108;28;20671;-80
2022/10/28 11:09:32;;;;;;;7.90;2.97;;;21.30;1.00;;;;;;5017705;28;20165;-80
2022/10/28 11:11:57;;;;;;;8.67;3.23;;;21.40;1.00;;;;;;5017430;28;20160;-80
2022/10/28 11:14:27;;;;;;;9.03;2.70;;;21.40;1.00;;;;;;5016906;28;20185;-81
2022/10/28 11:16:54;;;;;;;10.97;3.30;;;21.40;1.00;;;;;;5016074;28;20761;-81
2022/10/28 11:19:27;;;;;;;16.47;3.93;;;21.60;99.90;;;;;;5016889;28;20176;-80
2022/10/28 11:22:21;;;;;;;9.17;3.03;;;21.60;99.90;;;;;;5015119;28;20266;-81
2022/10/28 11:24:54;;;;;;;10.23;2.80;;;21.60;99.90;;;;;;5017797;28;20156;-81
2022/10/28 11:27:30;;;;;;;4.60;2.50;;;21.70;99.90;;;;;;5016796;28;20192;-80
2022/10/28 11:29:59;;;;;;;10.97;3.27;;;21.70;99.90;;;;;;5017759;28;20187;-80
2022/10/28 11:32:45;;;;;;;8.50;2.90;;;21.80;99.90;;;;;;5017026;28;20185;-81
2022/10/28 11:35:36;;;;;;;11.70;3.30;;;21.80;99.90;;;;;;5017834;28;20177;-78
2022/10/28 11:38:45;;;;;;;11.73;3.23;;;21.80;1.00;;;;;;5017771;28;20192;-80
2022/10/28 11:41:30;;;;;;;8.53;3.07;;;21.90;1.00;;;;;;5016915;28;20189;-81
2022/10/28 11:43:59;;;;;;;8.07;3.30;;;21.90;99.90;;;;;;5015461;28;20176;-80
2022/10/28 11:46:32;;;;;;;13.17;3.43;;;21.80;99.90;;;;;;5017557;28;20169;-80
2022/10/28 11:49:35;;;;;;;9.13;3.47;;;21.90;1.00;;;;;;5017736;28;20173;-81
2022/10/28 11:52:51;;;;;;;15.37;3.67;;;22.00;99.90;;;;;;4957126;28;20190;-81
2022/10/28 11:55:32;;;;;;;9.60;2.80;;;22.00;19.60;;;;;;5016561;28;20177;-80
2022/10/28 11:58:21;;;;;;;11.23;3.43;;;22.10;99.90;;;;;;5018704;28;20335;-79
2022/10/28 12:01:11;;;;;;;8.53;2.90;;;22.10;99.90;;;;;;5017279;28;20703;-80
2022/10/28 12:04:06;;;;;;;9.27;3.43;;;22.20;99.90;;;;;;5018746;28;20164;-77
2022/10/28 12:06:56;;;;;;;9.73;3.10;;;22.20;99.40;;;;;;5019453;28;20164;-80
2022/10/28 12:09:21;;;;;;;10.47;3.10;;;22.30;1.00;;;;;;5018569;28;20585;-80
2022/10/28 12:12:08;;;;;;;7.93;2.67;;;22.30;1.00;;;;;;5020474;28;20173;-81
2022/10/28 12:14:46;;;;;;;9.00;2.97;;;22.30;1.00;;;;;;5019593;28;20157;-81
2022/10/28 12:17:12;;;;;;;9.30;2.73;;;22.40;99.90;;;;;;5020460;28;20215;-80
2022/10/28 12:19:51;;;;;;;8.13;3.07;;;22.40;1.00;;;;;;5018506;28;20173;-80
2022/10/28 12:22:22;;;;;;;12.33;3.00;;;22.40;1.00;;;;;;5019593;28;20189;-80
2022/10/28 12:24:49;;;;;;;8.77;3.43;;;22.40;1.00;;;;;;5018686;28;20160;-81
2022/10/28 12:27:22;;;;;;;10.87;2.97;;;22.40;1.00;;;;;;5019340;28;20189;-80
2022/10/28 12:29:53;;;;;;;13.03;3.23;;;22.50;99.90;;;;;;5019195;28;20157;-80
2022/10/28 12:32:29;;;;;;;10.57;4.03;;;22.40;99.90;;;;;;5019221;28;20165;-80
2022/10/28 12:35:30;;;;;;;8.07;2.90;;;22.50;99.90;;;;;;5019084;28;20534;-80
2022/10/28 12:38:21;;;;;;;13.30;3.00;;;22.60;1.00;;;;;;4976490;28;20205;-80
2022/10/28 12:41:25;;;;;;;11.53;2.87;;;22.60;1.00;;;;;;5019068;28;20165;-80
2022/10/28 12:44:06;;;;;;;12.30;3.50;;;22.60;1.00;;;;;;4986627;28;20185;-80
2022/10/28 12:46:49;;;;;;;11.27;3.13;;;22.60;99.90;;;;;;5019368;28;20182;-79
2022/10/28 12:50:03;;;;;;;10.80;3.20;;;22.70;99.90;;;;;;5019875;28;20154;-81
2022/10/28 12:53:14;;;;;;;13.27;2.97;;;22.80;99.90;;;;;;4982684;28;20239;-80
2022/10/28 12:55:48;;;;;;;10.50;3.40;;;22.80;99.90;;;;;;5017721;28;20175;-79
2022/10/28 12:58:55;;;;;;;11.03;2.90;;;22.80;99.90;;;;;;5015966;28;20203;-79
2022/10/28 13:01:24;;;;;;;11.20;3.33;;;22.80;99.90;;;;;;5015321;28;20208;-79
2022/10/28 13:03:50;;;;;;;8.37;3.00;;;22.80;99.90;;;;;;5017065;28;20180;-80
2022/10/28 13:06:40;;;;;;;6.83;3.00;;;22.80;19.00;;;;;;5017931;28;20172;-80
2022/10/28 13:09:16;;;;;;;12.87;3.77;;;22.80;99.90;;;;;;5016488;28;20149;-80